Time;durP1;ratioP1;P1;durP2;ratioP2;P2;SDS_P1;SDS_P2;PMS_P1;PMS_P2;Temp;Humidity;BMP_temperature;BMP_pressure;BME280_temperature;BME280_humidity;BME280_pressure;Samples;Min_cycle;Max_cycle;Signal;HPM_P1;HPM_P2
2023/09/01 00:00:49;;;;;;;4.37;2.90;;;;;;;;;;5021497;28;20189;-77
2023/09/01 00:03:34;;;;;;;4.83;3.37;;;;;;;;;;5055714;28;20171;-77
2023/09/01 00:06:02;;;;;;;4.93;3.50;;;;;;;;;;5056992;28;20179;-76
2023/09/01 00:08:29;;;;;;;6.27;3.33;;;;;;;;;;5057735;28;20189;-78
2023/09/01 00:10:56;;;;;;;5.37;3.00;;;;;;;;;;5073909;28;20236;-77
2023/09/01 00:13:23;;;;;;;3.97;2.90;;;;;;;;;;5075299;28;20182;-77
2023/09/01 00:15:49;;;;;;;4.20;2.90;;;;;;;;;;5041190;28;20621;-77
2023/09/01 00:18:16;;;;;;;4.93;2.90;;;;;;;;;;5075540;28;20248;-77
2023/09/01 00:20:43;;;;;;;5.33;3.03;;;;;;;;;;5075015;28;20240;-77
2023/09/01 00:23:27;;;;;;;3.50;3.07;;;;;;;;;;5075814;28;20235;-77
2023/09/01 00:25:55;;;;;;;4.57;3.10;;;;;;;;;;5074576;28;20688;-77
2023/09/01 00:28:22;;;;;;;5.80;3.10;;;;;;;;;;5057086;28;20269;-78
2023/09/01 00:30:52;;;;;;;3.90;2.80;;;;;;;;;;5074043;28;20440;-77
2023/09/01 00:33:19;;;;;;;4.97;2.80;;;;;;;;;;5057131;28;20190;-76
2023/09/01 00:36:03;;;;;;;4.37;2.73;;;;;;;;;;5074418;28;20715;-78
2023/09/01 00:38:32;;;;;;;5.33;2.90;;;;;;;;;;5057317;28;20256;-77
2023/09/01 00:44:52;;;;;;;4.03;2.83;;;;;;;;;;5054554;28;20227;-76
2023/09/01 00:51:18;;;;;;;4.63;2.93;;;;;;;;;;5054654;28;20145;-78
2023/09/01 00:53:45;;;;;;;3.40;2.63;;;;;;;;;;5054593;28;20209;-77
2023/09/01 01:00:11;;;;;;;5.17;2.80;;;;;;;;;;5054357;28;20150;-77
2023/09/01 01:02:38;;;;;;;6.30;2.63;;;;;;;;;;5054463;28;20186;-76
2023/09/01 01:05:14;;;;;;;3.50;2.80;;;;;;;;;;5036740;28;20193;-76
2023/09/01 01:07:50;;;;;;;4.63;3.20;;;;;;;;;;5037727;28;20637;-77
2023/09/01 01:46:07;;;;;;;6.40;3.27;;;;;;;;;;5034174;28;20187;-77
2023/09/01 01:52:27;;;;;;;4.80;3.60;;;;;;;;;;5033600;28;20201;-78
2023/09/01 01:55:11;;;;;;;5.10;3.77;;;;;;;;;;5033229;28;20175;-77
2023/09/01 01:57:40;;;;;;;4.93;3.83;;;;;;;;;;5033502;28;20651;-77
2023/09/01 02:00:11;;;;;;;5.37;3.70;;;;;;;;;;5017128;28;20214;-77
2023/09/01 02:06:40;;;;;;;5.43;4.77;;;;;;;;;;5033809;28;20223;-77
2023/09/01 02:16:17;;;;;;;5.33;4.03;;;;;;;;;;5053582;28;20248;-78
2023/09/01 02:22:37;;;;;;;5.73;4.83;;;;;;;;;;5057388;28;20190;-78
2023/09/01 02:25:21;;;;;;;6.97;5.37;;;;;;;;;;5056170;28;20175;-78
2023/09/01 02:27:48;;;;;;;7.20;5.17;;;;;;;;;;5057638;28;20189;-77
2023/09/01 02:30:15;;;;;;;6.90;5.40;;;;;;;;;;5039166;28;20202;-78
2023/09/01 02:32:42;;;;;;;6.80;5.70;;;;;;;;;;5056334;28;20245;-77
2023/09/01 02:35:09;;;;;;;6.57;5.10;;;;;;;;;;5055555;28;20537;-77
2023/09/01 02:37:36;;;;;;;6.63;5.30;;;;;;;;;;5057683;28;20210;-76
2023/09/01 02:40:10;;;;;;;6.80;5.93;;;;;;;;;;5055819;28;20205;-79
2023/09/01 02:42:38;;;;;;;8.10;5.90;;;;;;;;;;5057837;28;20179;-78
2023/09/01 02:45:06;;;;;;;9.13;5.93;;;;;;;;;;5058827;28;20312;-77
2023/09/01 02:47:33;;;;;;;8.10;6.43;;;;;;;;;;5058911;28;20194;-76
2023/09/01 02:50:02;;;;;;;8.07;6.17;;;;;;;;;;5059073;28;20186;-77
2023/09/01 02:52:28;;;;;;;8.47;6.30;;;;;;;;;;5058733;28;20186;-77
2023/09/01 02:54:55;;;;;;;9.80;6.27;;;;;;;;;;5058895;28;20190;-77
2023/09/01 02:57:22;;;;;;;7.77;6.47;;;;;;;;;;5077041;28;20300;-78
2023/09/01 02:59:49;;;;;;;10.37;6.70;;;;;;;;;;5075244;28;20213;-77
2023/09/01 03:06:09;;;;;;;7.13;6.20;;;;;;;;;;5076373;28;20615;-77
2023/09/01 03:08:37;;;;;;;8.00;6.70;;;;;;;;;;5043990;28;20204;-77
2023/09/01 03:11:04;;;;;;;7.43;6.60;;;;;;;;;;5042896;28;20217;-76
2023/09/01 03:13:31;;;;;;;10.63;6.90;;;;;;;;;;5058639;28;20194;-77
2023/09/01 03:15:58;;;;;;;10.67;7.40;;;;;;;;;;5058758;28;20190;-77
2023/09/01 03:18:42;;;;;;;8.27;6.57;;;;;;;;;;5044807;28;20205;-77
2023/09/01 03:21:12;;;;;;;10.57;7.50;;;;;;;;;;5042100;28;20193;-76
2023/09/01 03:23:41;;;;;;;8.63;6.77;;;;;;;;;;5041771;28;20190;-75
2023/09/01 03:26:08;;;;;;;7.73;6.93;;;;;;;;;;5042713;28;20621;-77
2023/09/01 03:28:35;;;;;;;12.53;7.30;;;;;;;;;;5058105;28;20190;-76
2023/09/01 03:31:07;;;;;;;8.17;7.27;;;;;;;;;;5075892;28;20232;-76
2023/09/01 03:33:36;;;;;;;8.23;7.03;;;;;;;;;;5058700;28;20216;-77
2023/09/01 03:36:07;;;;;;;8.60;6.87;;;;;;;;;;5025323;28;20533;-76
2023/09/01 03:38:35;;;;;;;9.17;7.57;;;;;;;;;;5042273;28;20194;-77
2023/09/01 03:41:02;;;;;;;8.47;6.77;;;;;;;;;;5041611;28;20239;-77
2023/09/01 03:51:42;;;;;;;8.13;6.30;;;;;;;;;;5076627;28;20150;-78
2023/09/01 03:54:09;;;;;;;7.27;6.17;;;;;;;;;;5058911;28;20232;-77
2023/09/01 04:00:29;;;;;;;7.53;6.50;;;;;;;;;;5076817;28;20201;-77
2023/09/01 04:03:13;;;;;;;7.73;6.30;;;;;;;;;;5045808;28;20228;-77
2023/09/01 04:05:40;;;;;;;6.80;6.07;;;;;;;;;;5060611;28;20190;-77
2023/09/01 04:08:07;;;;;;;7.73;6.70;;;;;;;;;;5043032;28;20543;-77
2023/09/01 04:10:38;;;;;;;8.03;6.50;;;;;;;;;;5042441;28;20214;-77
2023/09/01 04:13:05;;;;;;;7.40;6.70;;;;;;;;;;5058235;28;20198;-75
2023/09/01 04:15:32;;;;;;;8.30;6.47;;;;;;;;;;5041604;28;20182;-77
2023/09/01 04:17:59;;;;;;;6.47;5.87;;;;;;;;;;5041301;28;20237;-77
2023/09/01 04:24:26;;;;;;;6.83;6.17;;;;;;;;;;5075470;28;20149;-77
2023/09/01 04:26:53;;;;;;;7.43;5.73;;;;;;;;;;5074577;28;20194;-77
2023/09/01 04:33:13;;;;;;;5.90;5.27;;;;;;;;;;5074602;28;20172;-78
2023/09/01 04:35:40;;;;;;;7.53;5.67;;;;;;;;;;5074513;28;20193;-77
2023/09/01 04:38:08;;;;;;;7.33;5.67;;;;;;;;;;5074294;28;20206;-77
2023/09/01 04:44:35;;;;;;;7.00;5.33;;;;;;;;;;5075389;28;20203;-77
2023/09/01 04:55:17;;;;;;;6.87;5.23;;;;;;;;;;5055386;28;20153;-78
2023/09/01 04:57:45;;;;;;;6.80;5.37;;;;;;;;;;5037772;28;20207;-77
2023/09/01 05:04:15;;;;;;;7.67;5.50;;;;;;;;;;5055395;28;20704;-83
2023/09/01 05:06:43;;;;;;;6.90;5.40;;;;;;;;;;5037799;28;20194;-85
2023/09/01 05:09:10;;;;;;;6.00;5.30;;;;;;;;;;5037499;28;20248;-84
2023/09/01 05:11:36;;;;;;;5.80;5.03;;;;;;;;;;5037680;28;20641;-83
2023/09/01 05:14:03;;;;;;;6.47;5.47;;;;;;;;;;5021130;28;20198;-84
2023/09/01 05:16:30;;;;;;;6.60;4.87;;;;;;;;;;5038367;28;20198;-82
2023/09/01 05:18:57;;;;;;;5.67;4.80;;;;;;;;;;5021776;28;20214;-82
2023/09/01 05:21:24;;;;;;;6.93;4.90;;;;;;;;;;5054565;28;20187;-74
2023/09/01 05:23:53;;;;;;;8.80;5.30;;;;;;;;;;5020880;28;20190;-73
2023/09/01 05:26:22;;;;;;;5.40;4.90;;;;;;;;;;5038375;28;20569;-73
2023/09/01 05:28:50;;;;;;;5.63;5.10;;;;;;;;;;5055044;28;20262;-71
2023/09/01 05:31:19;;;;;;;6.23;5.63;;;;;;;;;;5022381;28;20272;-75
2023/09/01 05:33:47;;;;;;;5.87;5.27;;;;;;;;;;5038155;28;20633;-74
2023/09/01 05:36:22;;;;;;;6.70;5.87;;;;;;;;;;5039838;28;20190;-74
2023/09/01 05:39:02;;;;;;;7.07;5.67;;;;;;;;;;5024858;28;20292;-74
2023/09/01 05:41:32;;;;;;;7.40;6.10;;;;;;;;;;5020329;28;20198;-74
2023/09/01 05:44:00;;;;;;;6.57;5.90;;;;;;;;;;5057529;28;20233;-72
2023/09/01 05:50:51;;;;;;;5.33;4.80;;;;;;;;;;5096368;28;20156;-76
2023/09/01 05:57:24;;;;;;;6.30;5.40;;;;;;;;;;5099785;28;20203;-75
2023/09/01 06:03:51;;;;;;;7.90;5.27;;;;;;;;;;5099739;28;20203;-78
2023/09/01 06:10:20;;;;;;;6.23;4.93;;;;;;;;;;5101317;28;20196;-76
2023/09/01 06:12:47;;;;;;;7.83;5.33;;;;;;;;;;5081249;28;20189;-77
2023/09/01 06:15:14;;;;;;;5.43;4.93;;;;;;;;;;5083566;28;20267;-77
2023/09/01 06:17:41;;;;;;;6.80;4.97;;;;;;;;;;5099729;28;20209;-73
2023/09/01 06:20:12;;;;;;;6.73;5.37;;;;;;;;;;5098521;28;20254;-75
2023/09/01 06:22:45;;;;;;;7.50;5.67;;;;;;;;;;5066503;28;20193;-75
2023/09/01 06:25:13;;;;;;;6.47;4.77;;;;;;;;;;5099884;28;20244;-76
2023/09/01 06:27:42;;;;;;;6.80;5.23;;;;;;;;;;5066085;28;20232;-73
2023/09/01 06:30:10;;;;;;;8.17;5.63;;;;;;;;;;5081341;28;20208;-74
2023/09/01 06:32:37;;;;;;;5.67;4.80;;;;;;;;;;5065536;28;20235;-74
2023/09/01 06:39:05;;;;;;;5.60;4.67;;;;;;;;;;5098477;28;20306;-75
2023/09/01 06:41:33;;;;;;;6.83;4.73;;;;;;;;;;5065102;28;20186;-79
2023/09/01 06:44:02;;;;;;;6.73;4.27;;;;;;;;;;5080892;28;20212;-77
2023/09/01 06:46:29;;;;;;;6.40;4.77;;;;;;;;;;5079943;28;20221;-75
2023/09/01 06:48:57;;;;;;;4.47;4.07;;;;;;;;;;5080410;28;20189;-77
2023/09/01 06:55:26;;;;;;;4.47;3.93;;;;;;;;;;5097439;28;20257;-78
2023/09/01 06:57:53;;;;;;;6.30;4.00;;;;;;;;;;5098092;28;20197;-76
2023/09/01 07:04:21;;;;;;;4.13;3.73;;;;;;;;;;5096493;28;20161;-78
2023/09/01 07:10:47;;;;;;;4.20;3.80;;;;;;;;;;5096918;28;20188;-73
2023/09/01 07:13:14;;;;;;;8.67;3.63;;;;;;;;;;5098300;28;20616;-79
2023/09/01 07:15:48;;;;;;;4.83;3.90;;;;;;;;;;5081544;28;20181;-79
2023/09/01 07:18:17;;;;;;;4.97;4.13;;;;;;;;;;5080415;28;20201;-79
2023/09/01 07:20:46;;;;;;;4.93;4.43;;;;;;;;;;5082104;28;20632;-79
2023/09/01 07:23:15;;;;;;;5.47;4.33;;;;;;;;;;5080990;28;20215;-77
2023/09/01 07:29:48;;;;;;;7.60;4.00;;;;;;;;;;5097113;28;20504;-75
2023/09/01 07:40:17;;;;;;;6.53;3.93;;;;;;;;;;5097039;28;20524;-74
2023/09/01 07:46:40;;;;;;;5.07;4.03;;;;;;;;;;5097692;28;20216;-76
2023/09/01 07:53:15;;;;;;;4.80;4.13;;;;;;;;;;5056462;28;20205;-73
2023/09/01 07:55:43;;;;;;;6.23;4.03;;;;;;;;;;5038082;28;20259;-78
2023/09/01 07:58:12;;;;;;;5.93;4.30;;;;;;;;;;5038779;28;20491;-75
2023/09/01 08:04:43;;;;;;;4.67;4.00;;;;;;;;;;5055673;28;20570;-73
2023/09/01 08:07:11;;;;;;;7.10;3.87;;;;;;;;;;5038961;28;20195;-74
2023/09/01 08:09:41;;;;;;;5.40;4.53;;;;;;;;;;5037828;28;20297;-75
2023/09/01 08:12:10;;;;;;;6.10;4.10;;;;;;;;;;5022164;28;20199;-75
2023/09/01 08:18:37;;;;;;;6.30;3.93;;;;;;;;;;5055798;28;20229;-75
2023/09/01 08:21:05;;;;;;;8.30;4.30;;;;;;;;;;5068448;28;20178;-73
2023/09/01 08:27:28;;;;;;;5.07;4.07;;;;;;;;;;5076717;28;20232;-75
2023/09/01 08:33:55;;;;;;;6.07;3.90;;;;;;;;;;5075495;28;20157;-73
2023/09/01 08:36:24;;;;;;;5.23;3.80;;;;;;;;;;5077369;28;20190;-76
2023/09/01 08:38:54;;;;;;;5.40;4.00;;;;;;;;;;5026278;28;20301;-74
2023/09/01 08:41:21;;;;;;;6.17;4.20;;;;;;;;;;5057838;28;20248;-74
2023/09/01 08:43:48;;;;;;;6.90;3.83;;;;;;;;;;5058101;28;20182;-74
2023/09/01 08:46:16;;;;;;;6.37;3.80;;;;;;;;;;5040494;28;20218;-72
2023/09/01 08:48:43;;;;;;;4.93;3.73;;;;;;;;;;5058471;28;20190;-74
2023/09/01 08:51:14;;;;;;;7.47;4.20;;;;;;;;;;5041448;28;20560;-74
2023/09/01 08:53:42;;;;;;;7.33;3.97;;;;;;;;;;5057970;28;20253;-72
2023/09/01 08:56:08;;;;;;;5.57;3.73;;;;;;;;;;5056945;28;20514;-76
2023/09/01 08:58:36;;;;;;;5.43;3.97;;;;;;;;;;5040495;28;20206;-72
2023/09/01 09:01:03;;;;;;;5.17;3.67;;;;;;;;;;5057879;28;20186;-73
2023/09/01 09:03:32;;;;;;;6.30;4.33;;;;;;;;;;5040592;28;20641;-77
2023/09/01 09:06:02;;;;;;;7.93;4.43;;;;;;;;;;5040925;28;20181;-78
2023/09/01 09:08:30;;;;;;;5.77;4.37;;;;;;;;;;5041262;28;20629;-76
2023/09/01 09:14:52;;;;;;;6.97;4.17;;;;;;;;;;5074951;28;20157;-76
2023/09/01 09:17:27;;;;;;;9.37;5.03;;;;;;;;;;5041160;28;20190;-76
2023/09/01 09:19:59;;;;;;;10.43;5.67;;;;;;;;;;5056555;28;20194;-77
2023/09/01 09:22:27;;;;;;;5.47;4.53;;;;;;;;;;5057779;28;20224;-77
2023/09/01 09:28:54;;;;;;;7.60;5.10;;;;;;;;;;5054335;28;20247;-77
2023/09/01 09:42:35;;;;;;;8.80;5.53;;;;;;;;;;5077505;28;20184;-79
2023/09/01 09:45:03;;;;;;;7.50;5.60;;;;;;;;;;5042076;28;20190;-77
2023/09/01 09:47:31;;;;;;;9.00;5.93;;;;;;;;;;5040988;28;20234;-80
2023/09/01 09:50:00;;;;;;;12.27;6.70;;;;;;;;;;5060308;28;20189;-80
2023/09/01 09:56:32;;;;;;;13.23;6.60;;;;;;;;;;5074299;28;20153;-77
2023/09/01 09:59:04;;;;;;;9.23;6.50;;;;;;;;;;5072828;28;20305;-76
2023/09/01 10:01:39;;;;;;;10.57;6.53;;;;;;;;;;5040867;28;20189;-77
2023/09/01 10:04:07;;;;;;;11.10;7.47;;;;;;;;;;5056276;28;20189;-73
2023/09/01 10:10:33;;;;;;;8.10;6.20;;;;;;;;;;5065668;28;20240;-76
2023/09/01 10:13:06;;;;;;;10.17;6.37;;;;;;;;;;5040132;28;20286;-74
2023/09/01 10:19:34;;;;;;;8.67;6.10;;;;;;;;;;5076190;28;20606;-74
2023/09/01 10:22:01;;;;;;;8.07;6.47;;;;;;;;;;5077293;28;20676;-75
2023/09/01 10:25:06;;;;;;;8.97;6.90;;;;;;;;;;5075910;28;20165;-77
2023/09/01 10:27:33;;;;;;;8.70;6.47;;;;;;;;;;5075495;28;20273;-76
2023/09/01 10:30:00;;;;;;;10.03;6.97;;;;;;;;;;5057709;28;20189;-74
2023/09/01 10:43:56;;;;;;;8.87;6.60;;;;;;;;;;5040811;28;20170;-77
2023/09/01 10:46:23;;;;;;;9.27;7.13;;;;;;;;;;5059556;28;20234;-77
2023/09/01 10:52:46;;;;;;;8.47;7.13;;;;;;;;;;5061115;28;20185;-78
2023/09/01 10:55:16;;;;;;;10.13;6.70;;;;;;;;;;5043523;28;20293;-79
2023/09/01 11:01:45;;;;;;;10.00;6.80;;;;;;;;;;5059926;28;20276;-75
2023/09/01 11:08:17;;;;;;;9.83;6.53;;;;;;;;;;5060655;28;20150;-78
2023/09/01 11:10:45;;;;;;;9.33;7.03;;;;;;;;;;5042919;28;20221;-82
2023/09/01 11:13:15;;;;;;;10.57;7.53;;;;;;;;;;5043244;28;20194;-79
2023/09/01 11:15:44;;;;;;;10.70;7.57;;;;;;;;;;5059081;28;20171;-81
2023/09/01 11:18:15;;;;;;;9.77;7.00;;;;;;;;;;5026678;28;20613;-79
2023/09/01 11:20:43;;;;;;;8.37;6.53;;;;;;;;;;5059223;28;20191;-81
2023/09/01 11:23:10;;;;;;;9.90;7.13;;;;;;;;;;5059797;28;20194;-80
2023/09/01 11:25:38;;;;;;;13.13;7.23;;;;;;;;;;5060704;28;20191;-79
2023/09/01 11:31:59;;;;;;;12.53;6.23;;;;;;;;;;5060271;28;20683;-80
2023/09/01 11:34:36;;;;;;;5.93;5.30;;;;;;;;;;5040709;28;20560;-78
2023/09/01 11:37:04;;;;;;;6.07;5.00;;;;;;;;;;5040069;28;20221;-74
2023/09/01 11:39:31;;;;;;;6.73;5.37;;;;;;;;;;5039839;28;20581;-77
2023/09/01 11:41:59;;;;;;;9.33;5.07;;;;;;;;;;5022867;28;20194;-73
2023/09/01 11:48:26;;;;;;;9.27;4.93;;;;;;;;;;5055503;28;20347;-75
2023/09/01 11:50:54;;;;;;;6.93;4.80;;;;;;;;;;5039249;28;20237;-74
2023/09/01 11:53:25;;;;;;;5.20;4.70;;;;;;;;;;5038753;28;20187;-75
2023/09/01 11:55:58;;;;;;;5.37;4.30;;;;;;;;;;5023082;28;20190;-74
2023/09/01 11:58:43;;;;;;;6.40;4.50;;;;;;;;;;5042551;28;20210;-75
2023/09/01 12:01:14;;;;;;;8.10;4.67;;;;;;;;;;5041314;28;20175;-75
2023/09/01 12:04:06;;;;;;;8.43;4.80;;;;;;;;;;5040707;28;20174;-74
2023/09/01 12:06:49;;;;;;;6.13;5.53;;;;;;;;;;5057057;28;20198;-76
2023/09/01 12:13:18;;;;;;;7.70;4.77;;;;;;;;;;5056849;28;20151;-75
2023/09/01 12:15:56;;;;;;;6.63;4.90;;;;;;;;;;5063971;28;20182;-76
2023/09/01 12:18:26;;;;;;;7.33;3.93;;;;;;;;;;5037791;28;20189;-75
2023/09/01 12:20:55;;;;;;;3.63;3.17;;;;;;;;;;5055005;28;20187;-77
2023/09/01 12:23:27;;;;;;;4.83;3.83;;;;;;;;;;5025588;28;20186;-76
2023/09/01 12:26:01;;;;;;;7.17;4.10;;;;;;;;;;5042980;28;20194;-78
2023/09/01 12:28:30;;;;;;;6.67;4.03;;;;;;;;;;5076637;28;20529;-77
2023/09/01 12:31:02;;;;;;;3.87;2.87;;;;;;;;;;5042973;28;20240;-78
2023/09/01 12:33:30;;;;;;;4.13;3.13;;;;;;;;;;5058816;28;20202;-74
2023/09/01 12:35:57;;;;;;;4.50;3.00;;;;;;;;;;5040840;28;20221;-75
2023/09/01 12:38:24;;;;;;;4.90;3.13;;;;;;;;;;5040316;28;20277;-75
2023/09/01 12:40:53;;;;;;;3.30;3.00;;;;;;;;;;5040351;28;20191;-74
2023/09/01 12:43:27;;;;;;;4.83;3.33;;;;;;;;;;5031426;28;20325;-74
2023/09/01 12:45:55;;;;;;;4.43;3.27;;;;;;;;;;5060527;28;20198;-75
2023/09/01 12:48:22;;;;;;;4.87;3.57;;;;;;;;;;5078790;28;20217;-76
2023/09/01 12:50:50;;;;;;;4.60;3.67;;;;;;;;;;5060577;28;20284;-75
2023/09/01 12:53:18;;;;;;;4.50;3.07;;;;;;;;;;5077193;28;20182;-74
2023/09/01 12:55:47;;;;;;;5.30;2.87;;;;;;;;;;5077319;28;20585;-74
2023/09/01 12:58:14;;;;;;;3.73;2.77;;;;;;;;;;5078230;28;20182;-74
2023/09/01 13:00:42;;;;;;;5.00;3.30;;;;;;;;;;5043189;28;20244;-76
2023/09/01 13:03:10;;;;;;;5.30;3.40;;;;;;;;;;5042353;28;20202;-74
2023/09/01 13:05:37;;;;;;;3.77;3.10;;;;;;;;;;5076360;28;20190;-74
2023/09/01 13:08:05;;;;;;;4.10;3.10;;;;;;;;;;5074957;28;20182;-73
2023/09/01 13:10:33;;;;;;;4.20;3.00;;;;;;;;;;5076612;28;20205;-75
2023/09/01 13:13:01;;;;;;;3.13;2.90;;;;;;;;;;5059251;28;20193;-76
2023/09/01 13:15:48;;;;;;;4.83;3.03;;;;;;;;;;5061499;28;20177;-74
2023/09/01 13:18:16;;;;;;;3.87;3.23;;;;;;;;;;5075190;28;20166;-75
2023/09/01 13:20:47;;;;;;;3.50;3.20;;;;;;;;;;5073755;28;20201;-75
2023/09/01 13:23:15;;;;;;;3.67;3.10;;;;;;;;;;5076391;28;20202;-75
2023/09/01 13:25:42;;;;;;;3.00;2.70;;;;;;;;;;5074290;28;20608;-75
2023/09/01 13:28:28;;;;;;;2.97;2.60;;;;;;;;;;5058805;28;20624;-76
2023/09/01 13:30:59;;;;;;;3.80;2.20;;;;;;;;;;5057178;28;20194;-77
2023/09/01 13:33:26;;;;;;;2.23;2.03;;;;;;;;;;5057991;28;20185;-76
2023/09/01 13:35:54;;;;;;;3.23;2.00;;;;;;;;;;5075783;28;20188;-77
2023/09/01 13:38:21;;;;;;;4.67;2.10;;;;;;;;;;5075219;28;20178;-75
2023/09/01 13:40:54;;;;;;;3.10;2.00;;;;;;;;;;5058647;28;20222;-78
2023/09/01 13:43:22;;;;;;;3.00;2.43;;;;;;;;;;5060590;28;20177;-80
2023/09/01 13:46:03;;;;;;;2.17;1.97;;;;;;;;;;5061363;28;20297;-80
2023/09/01 13:48:36;;;;;;;1.97;1.63;;;;;;;;;;5061206;28;20218;-79
2023/09/01 13:51:04;;;;;;;2.27;1.60;;;;;;;;;;5078388;28;20269;-78
2023/09/01 13:53:31;;;;;;;3.37;1.50;;;;;;;;;;5059100;28;20189;-76
2023/09/01 13:55:59;;;;;;;2.13;1.60;;;;;;;;;;5059577;28;20192;-80
2023/09/01 13:58:43;;;;;;;2.27;1.90;;;;;;;;;;5076372;28;20163;-78
2023/09/01 14:01:11;;;;;;;1.50;1.40;;;;;;;;;;5058658;28;20208;-78
2023/09/01 14:03:39;;;;;;;1.50;1.40;;;;;;;;;;5058553;28;20232;-80
2023/09/01 14:06:08;;;;;;;1.90;1.50;;;;;;;;;;5047315;28;20187;-79
2023/09/01 14:08:37;;;;;;;2.23;1.80;;;;;;;;;;5049799;28;20194;-80
2023/09/01 14:11:18;;;;;;;2.20;1.50;;;;;;;;;;5045203;28;20233;-81
2023/09/01 14:13:56;;;;;;;2.00;1.80;;;;;;;;;;5080700;28;20171;-78
2023/09/01 14:16:23;;;;;;;1.87;1.70;;;;;;;;;;5082093;28;20200;-79
2023/09/01 14:18:58;;;;;;;3.33;1.90;;;;;;;;;;5065096;28;20174;-77
2023/09/01 14:21:25;;;;;;;2.00;1.80;;;;;;;;;;5046374;28;20190;-77
2023/09/01 14:23:52;;;;;;;2.87;1.80;;;;;;;;;;5045666;28;20194;-75
2023/09/01 14:26:19;;;;;;;1.87;1.50;;;;;;;;;;5062279;28;20186;-75
2023/09/01 14:28:47;;;;;;;1.80;1.70;;;;;;;;;;5082495;28;20571;-80
2023/09/01 14:31:18;;;;;;;2.60;1.50;;;;;;;;;;5047639;28;20171;-78
2023/09/01 14:33:45;;;;;;;2.30;1.67;;;;;;;;;;5063461;28;20182;-77
2023/09/01 14:36:21;;;;;;;2.83;1.90;;;;;;;;;;5047114;28;20247;-76
2023/09/01 14:38:56;;;;;;;2.00;1.77;;;;;;;;;;5048890;28;20190;-80
2023/09/01 14:41:24;;;;;;;3.73;2.00;;;;;;;;;;5062250;28;20209;-83
2023/09/01 14:43:53;;;;;;;2.03;1.40;;;;;;;;;;5077871;28;20178;-82
2023/09/01 14:46:21;;;;;;;2.23;1.50;;;;;;;;;;5062389;28;20208;-78
2023/09/01 14:48:49;;;;;;;2.37;1.50;;;;;;;;;;5043739;28;20222;-71
2023/09/01 14:51:17;;;;;;;1.97;1.60;;;;;;;;;;5077266;28;20189;-72
2023/09/01 14:53:45;;;;;;;1.80;1.40;;;;;;;;;;5077171;28;20201;-74
2023/09/01 14:56:16;;;;;;;3.80;1.60;;;;;;;;;;5060181;28;20170;-73
2023/09/01 14:58:43;;;;;;;2.03;1.60;;;;;;;;;;5075730;28;20192;-74
2023/09/01 15:01:11;;;;;;;2.27;1.20;;;;;;;;;;5076508;28;20293;-72
2023/09/01 15:03:39;;;;;;;1.50;1.30;;;;;;;;;;5058879;28;20196;-72
2023/09/01 15:06:06;;;;;;;1.90;1.60;;;;;;;;;;5042490;28;20193;-78
2023/09/01 15:08:33;;;;;;;3.33;1.50;;;;;;;;;;5059680;28;20186;-78
2023/09/01 15:11:04;;;;;;;1.60;1.30;;;;;;;;;;5059553;28;20279;-77
2023/09/01 15:13:31;;;;;;;1.40;1.20;;;;;;;;;;5059281;28;20194;-78
2023/09/01 15:15:58;;;;;;;1.40;1.30;;;;;;;;;;5076546;28;20218;-73
2023/09/01 15:18:25;;;;;;;2.03;1.20;;;;;;;;;;5059819;28;20269;-72
2023/09/01 15:21:10;;;;;;;1.97;1.20;;;;;;;;;;5045260;28;20285;-78
2023/09/01 15:23:37;;;;;;;2.80;1.37;;;;;;;;;;5071895;28;20672;-77
2023/09/01 15:26:07;;;;;;;1.30;1.20;;;;;;;;;;5058875;28;20217;-77
2023/09/01 15:28:34;;;;;;;1.97;1.40;;;;;;;;;;5075942;28;20186;-77
2023/09/01 15:31:04;;;;;;;2.43;1.30;;;;;;;;;;5075909;28;20186;-76
2023/09/01 15:33:31;;;;;;;3.17;1.40;;;;;;;;;;5059000;28;20170;-78
2023/09/01 15:35:58;;;;;;;2.10;1.70;;;;;;;;;;5076640;28;20213;-77
2023/09/01 15:38:26;;;;;;;2.00;1.67;;;;;;;;;;5058328;28;20182;-77
2023/09/01 15:41:10;;;;;;;2.00;1.67;;;;;;;;;;5075926;28;20227;-77
2023/09/01 15:43:38;;;;;;;3.90;1.90;;;;;;;;;;5057679;28;20183;-77
2023/09/01 15:46:09;;;;;;;1.87;1.50;;;;;;;;;;5057560;28;20186;-77
2023/09/01 15:48:37;;;;;;;3.23;1.80;;;;;;;;;;5057873;28;20221;-77
2023/09/01 15:51:06;;;;;;;3.67;1.83;;;;;;;;;;5058292;28;20683;-77
2023/09/01 15:53:33;;;;;;;2.53;1.67;;;;;;;;;;5057613;28;20193;-78
2023/09/01 15:56:00;;;;;;;2.30;1.37;;;;;;;;;;5075734;28;20178;-77
2023/09/01 15:58:29;;;;;;;1.87;1.30;;;;;;;;;;5074564;28;20182;-78
2023/09/01 16:00:57;;;;;;;1.67;1.40;;;;;;;;;;5075691;28;20247;-77
2023/09/01 16:07:40;;;;;;;2.40;1.43;;;;;;;;;;5075570;28;20153;-77
2023/09/01 16:10:08;;;;;;;2.00;1.27;;;;;;;;;;5075268;28;20201;-77
2023/09/01 16:12:36;;;;;;;1.87;1.27;;;;;;;;;;5076393;28;20217;-78
2023/09/01 16:15:03;;;;;;;2.50;1.30;;;;;;;;;;5058152;28;20194;-78
2023/09/01 16:17:30;;;;;;;1.73;1.30;;;;;;;;;;5058523;28;20197;-76
2023/09/01 16:24:00;;;;;;;2.20;1.27;;;;;;;;;;5076050;28;20153;-77
2023/09/01 16:30:28;;;;;;;2.47;1.67;;;;;;;;;;5076201;28;20149;-73
2023/09/01 16:32:55;;;;;;;3.63;1.60;;;;;;;;;;5074175;28;20178;-74
2023/09/01 16:35:22;;;;;;;2.93;1.80;;;;;;;;;;5057389;28;20229;-74
2023/09/01 16:37:50;;;;;;;3.37;2.13;;;;;;;;;;5056186;28;20187;-73
2023/09/01 16:40:17;;;;;;;2.10;1.83;;;;;;;;;;5073798;28;20198;-74
2023/09/01 16:46:43;;;;;;;3.17;1.50;;;;;;;;;;5075950;28;20241;-75
2023/09/01 16:53:16;;;;;;;3.57;1.60;;;;;;;;;;5055918;28;20562;-76
2023/09/01 16:55:45;;;;;;;3.50;1.40;;;;;;;;;;5027183;28;20201;-76
2023/09/01 16:58:13;;;;;;;2.23;1.40;;;;;;;;;;5038930;28;20638;-76
2023/09/01 17:00:40;;;;;;;4.20;1.47;;;;;;;;;;5022799;28;20203;-73
2023/09/01 17:07:08;;;;;;;2.17;1.40;;;;;;;;;;5054549;28;20197;-72
2023/09/01 17:09:36;;;;;;;2.27;1.43;;;;;;;;;;5054667;28;20633;-74
2023/09/01 17:12:03;;;;;;;2.20;1.47;;;;;;;;;;5035456;28;20257;-73
2023/09/01 17:14:30;;;;;;;2.10;1.40;;;;;;;;;;5036889;28;20183;-73
2023/09/01 17:16:57;;;;;;;2.93;1.40;;;;;;;;;;5037014;28;20225;-73
2023/09/01 17:19:24;;;;;;;2.20;1.40;;;;;;;;;;5036622;28;20638;-72
2023/09/01 17:21:52;;;;;;;3.60;2.10;;;;;;;;;;5036718;28;20218;-73
2023/09/01 17:24:19;;;;;;;3.10;1.63;;;;;;;;;;5036784;28;20221;-73
2023/09/01 17:26:46;;;;;;;3.37;1.80;;;;;;;;;;5021256;28;20175;-76
2023/09/01 17:29:14;;;;;;;3.47;1.80;;;;;;;;;;5037705;28;20179;-76
2023/09/01 17:31:41;;;;;;;4.50;1.93;;;;;;;;;;5038451;28;20221;-78
2023/09/01 17:34:08;;;;;;;2.43;1.73;;;;;;;;;;5039587;28;20622;-76
2023/09/01 17:36:36;;;;;;;3.83;2.00;;;;;;;;;;5039165;28;20260;-78
2023/09/01 17:39:03;;;;;;;3.50;2.20;;;;;;;;;;5056933;28;20209;-79
2023/09/01 17:41:36;;;;;;;4.47;2.50;;;;;;;;;;5022083;28;20213;-75
2023/09/01 17:44:29;;;;;;;4.20;2.13;;;;;;;;;;5037391;28;20274;-77
2023/09/01 17:46:58;;;;;;;4.60;2.20;;;;;;;;;;5036486;28;20183;-77
2023/09/01 17:49:53;;;;;;;6.13;2.33;;;;;;;;;;5036791;28;20240;-78
2023/09/01 17:56:20;;;;;;;6.23;1.80;;;;;;;;;;5074499;28;20262;-77
2023/09/01 18:02:48;;;;;;;4.07;2.27;;;;;;;;;;5074825;28;20659;-75
2023/09/01 18:09:15;;;;;;;3.63;2.70;;;;;;;;;;5071593;28;20572;-76
2023/09/01 18:11:44;;;;;;;4.97;2.63;;;;;;;;;;5053404;28;20210;-77
2023/09/01 18:18:11;;;;;;;3.53;2.07;;;;;;;;;;5054100;28;20161;-80
2023/09/01 18:20:41;;;;;;;3.83;2.07;;;;;;;;;;5033166;28;20522;-81
2023/09/01 18:23:14;;;;;;;3.90;2.00;;;;;;;;;;5034258;28;20504;-80
2023/09/01 18:25:42;;;;;;;2.50;2.00;;;;;;;;;;5001245;28;20195;-79
2023/09/01 18:28:12;;;;;;;4.13;2.07;;;;;;;;;;5032966;28;20702;-78
2023/09/01 18:30:39;;;;;;;2.43;2.00;;;;;;;;;;5025675;28;20187;-74
2023/09/01 18:33:06;;;;;;;3.87;2.43;;;;;;;;;;5053211;28;20218;-74
2023/09/01 18:35:33;;;;;;;5.47;2.50;;;;;;;;;;5068597;28;20179;-74
2023/09/01 18:38:01;;;;;;;3.67;2.50;;;;;;;;;;5055248;28;20201;-74
2023/09/01 18:40:28;;;;;;;5.67;2.23;;;;;;;;;;5055117;28;20210;-74
2023/09/01 18:42:56;;;;;;;4.00;2.67;;;;;;;;;;5055693;28;20182;-74
2023/09/01 18:45:26;;;;;;;3.30;2.50;;;;;;;;;;5072949;28;20239;-74
2023/09/01 18:47:53;;;;;;;4.20;2.70;;;;;;;;;;5073071;28;20205;-74
2023/09/01 18:50:22;;;;;;;4.00;2.80;;;;;;;;;;5072331;28;20186;-74
2023/09/01 18:52:58;;;;;;;4.23;2.57;;;;;;;;;;5071940;28;20213;-73
2023/09/01 18:55:26;;;;;;;4.30;2.50;;;;;;;;;;5072301;28;20673;-74
2023/09/01 18:57:53;;;;;;;4.80;2.60;;;;;;;;;;5055101;28;20194;-72
2023/09/01 19:00:22;;;;;;;4.90;2.57;;;;;;;;;;5073609;28;20252;-73
2023/09/01 19:02:51;;;;;;;5.07;2.60;;;;;;;;;;5076573;28;20190;-74
2023/09/01 19:05:25;;;;;;;4.10;2.63;;;;;;;;;;5059268;28;20186;-73
2023/09/01 19:07:52;;;;;;;4.40;2.60;;;;;;;;;;5058777;28;20184;-74
2023/09/01 19:10:19;;;;;;;3.90;2.67;;;;;;;;;;5058393;28;20286;-74
2023/09/01 19:12:48;;;;;;;3.47;2.20;;;;;;;;;;5076094;28;20182;-74
2023/09/01 19:15:16;;;;;;;3.50;2.30;;;;;;;;;;5059287;28;20641;-74
2023/09/01 19:17:43;;;;;;;4.30;2.30;;;;;;;;;;5058304;28;20706;-74
2023/09/01 19:20:21;;;;;;;4.00;2.10;;;;;;;;;;5076045;28;20220;-74
2023/09/01 19:22:48;;;;;;;4.10;2.40;;;;;;;;;;5076023;28;20174;-74
2023/09/01 19:25:15;;;;;;;3.43;2.17;;;;;;;;;;5058428;28;20644;-74
2023/09/01 19:27:49;;;;;;;4.13;2.23;;;;;;;;;;5059876;28;20185;-74
2023/09/01 19:30:33;;;;;;;5.13;2.30;;;;;;;;;;5058404;28;20174;-73
2023/09/01 19:33:03;;;;;;;3.53;2.63;;;;;;;;;;5058479;28;20637;-74
2023/09/01 19:35:49;;;;;;;2.47;1.87;;;;;;;;;;5075049;28;20235;-74
2023/09/01 19:38:18;;;;;;;4.93;2.53;;;;;;;;;;5074572;28;20190;-74